Time;durP1;ratioP1;P1;durP2;ratioP2;P2;SDS_P1;SDS_P2;PMS_P1;PMS_P2;Temp;Humidity;BMP_temperature;BMP_pressure;BME280_temperature;BME280_humidity;BME280_pressure;Samples;Min_cycle;Max_cycle;Signal;HPM_P1;HPM_P2
2021/04/29 00:01:17;;;;;;;5.13;2.33;;;11.10;99.90;;;;;;5083577;28;20188;-81
2021/04/29 00:03:43;;;;;;;1.60;1.50;;;11.10;99.90;;;;;;5064609;28;20176;-81
2021/04/29 00:06:09;;;;;;;1.93;1.27;;;11.10;99.90;;;;;;5082835;28;20294;-81
2021/04/29 00:08:38;;;;;;;3.30;1.90;;;11.10;99.90;;;;;;5083364;28;20176;-81
2021/04/29 00:11:06;;;;;;;2.40;1.50;;;11.00;99.90;;;;;;5083919;28;20256;-81
2021/04/29 00:13:32;;;;;;;2.10;1.23;;;11.00;99.90;;;;;;5084022;28;20627;-81
2021/04/29 00:15:57;;;;;;;2.97;1.53;;;11.00;99.90;;;;;;5065191;28;20177;-81
2021/04/29 00:18:23;;;;;;;1.30;1.20;;;11.00;99.90;;;;;;5065544;28;20227;-81
2021/04/29 00:20:54;;;;;;;1.33;1.23;;;11.00;99.90;;;;;;5065194;28;20227;-81
2021/04/29 00:23:21;;;;;;;1.50;1.13;;;11.00;99.90;;;;;;5064931;28;20180;-81
2021/04/29 00:25:46;;;;;;;1.33;1.20;;;11.00;99.90;;;;;;5064342;28;20185;-81
2021/04/29 00:28:12;;;;;;;2.13;1.43;;;11.00;99.90;;;;;;5082139;28;20203;-81
2021/04/29 00:30:37;;;;;;;1.40;1.10;;;11.00;99.90;;;;;;5063119;28;20230;-81
2021/04/29 00:33:03;;;;;;;1.20;1.10;;;11.00;99.90;;;;;;5063978;28;20176;-81
2021/04/29 00:35:29;;;;;;;1.70;1.30;;;11.00;99.90;;;;;;5082586;28;20183;-81
2021/04/29 00:37:55;;;;;;;1.70;1.30;;;11.00;99.90;;;;;;5062090;28;20188;-81
2021/04/29 00:40:20;;;;;;;1.10;1.00;;;11.10;99.90;;;;;;5061339;28;20205;-81
2021/04/29 00:42:46;;;;;;;2.27;1.50;;;11.10;99.90;;;;;;5060044;28;20213;-81
2021/04/29 00:45:12;;;;;;;1.83;1.47;;;11.10;99.90;;;;;;5082195;28;20256;-81
2021/04/29 00:47:39;;;;;;;1.73;1.40;;;11.00;99.90;;;;;;5071746;28;20208;-81
2021/04/29 00:50:08;;;;;;;3.13;1.60;;;11.00;99.90;;;;;;5092689;28;20196;-81
2021/04/29 00:52:33;;;;;;;1.87;1.50;;;10.90;99.90;;;;;;5073379;28;20278;-81
2021/04/29 00:54:59;;;;;;;2.77;1.90;;;10.90;99.90;;;;;;5085663;28;20180;-81
2021/04/29 00:57:25;;;;;;;2.73;1.70;;;10.80;99.90;;;;;;5085507;28;20188;-81
2021/04/29 00:59:52;;;;;;;1.97;1.77;;;10.70;99.90;;;;;;5085735;28;20230;-81
2021/04/29 01:02:19;;;;;;;2.03;1.60;;;10.70;99.90;;;;;;5087767;28;20177;-81
2021/04/29 01:05:04;;;;;;;2.53;1.70;;;10.60;99.90;;;;;;5087471;28;20177;-81
2021/04/29 01:07:37;;;;;;;2.10;1.80;;;10.60;99.90;;;;;;5070139;28;20209;-81
2021/04/29 01:10:11;;;;;;;1.87;1.70;;;10.60;99.90;;;;;;5084146;28;20218;-81
2021/04/29 01:12:42;;;;;;;2.33;1.70;;;10.60;99.90;;;;;;5065266;28;20207;-81
2021/04/29 01:15:10;;;;;;;2.77;1.80;;;10.50;99.90;;;;;;5065967;28;20175;-81
2021/04/29 01:17:37;;;;;;;3.10;1.93;;;10.50;99.90;;;;;;5083678;28;20184;-81
2021/04/29 01:20:12;;;;;;;2.07;1.63;;;10.60;99.90;;;;;;5065673;28;20559;-81
2021/04/29 01:22:43;;;;;;;2.30;2.00;;;10.50;99.90;;;;;;5084564;28;20187;-81
2021/04/29 01:25:13;;;;;;;4.43;1.87;;;10.60;99.90;;;;;;5084257;28;20172;-81
2021/04/29 01:27:39;;;;;;;2.17;1.97;;;10.60;99.90;;;;;;5066923;28;20208;-81
2021/04/29 01:30:09;;;;;;;3.27;2.13;;;10.60;99.90;;;;;;5066699;28;20211;-81
2021/04/29 01:32:35;;;;;;;2.63;2.03;;;10.60;99.90;;;;;;5092277;28;20240;-81
2021/04/29 01:35:02;;;;;;;1.80;1.47;;;10.60;99.90;;;;;;5091788;28;20229;-82
2021/04/29 01:37:29;;;;;;;1.77;1.40;;;10.60;99.90;;;;;;5071632;28;20188;-81
2021/04/29 01:39:54;;;;;;;3.50;1.87;;;10.70;99.90;;;;;;5086498;28;20201;-81
2021/04/29 01:42:20;;;;;;;1.90;1.33;;;10.70;99.90;;;;;;5067285;28;20188;-81
2021/04/29 01:44:46;;;;;;;1.00;0.90;;;10.70;99.90;;;;;;5067161;28;20556;-81
2021/04/29 01:47:12;;;;;;;1.10;1.00;;;10.80;99.90;;;;;;5085645;28;20591;-81
2021/04/29 01:49:38;;;;;;;1.53;1.10;;;10.80;99.90;;;;;;5067640;28;20199;-81
2021/04/29 01:52:08;;;;;;;2.17;1.17;;;10.90;99.90;;;;;;5084944;28;20564;-81
2021/04/29 01:54:34;;;;;;;3.20;1.30;;;10.90;99.90;;;;;;5066648;28;20177;-81
2021/04/29 01:57:00;;;;;;;4.00;1.10;;;11.00;99.90;;;;;;5085826;28;20602;-81
2021/04/29 01:59:26;;;;;;;3.23;1.00;;;11.00;99.90;;;;;;5067244;28;20211;-81
2021/04/29 02:01:51;;;;;;;1.23;0.80;;;11.00;99.90;;;;;;5085668;28;20178;-81
2021/04/29 02:04:17;;;;;;;0.80;0.80;;;11.00;99.90;;;;;;5067433;28;20180;-81
2021/04/29 02:06:45;;;;;;;1.10;0.60;;;11.00;99.90;;;;;;5067406;28;20205;-81
2021/04/29 02:09:12;;;;;;;1.87;1.07;;;11.00;99.90;;;;;;5085883;28;20200;-81
2021/04/29 02:11:48;;;;;;;1.07;0.93;;;11.00;99.90;;;;;;5085849;28;20521;-81
2021/04/29 02:14:18;;;;;;;1.50;1.00;;;11.00;99.90;;;;;;5066583;28;20181;-81
2021/04/29 02:16:47;;;;;;;0.60;0.60;;;11.00;99.90;;;;;;5067178;28;20187;-81
2021/04/29 02:19:14;;;;;;;1.07;0.90;;;11.00;99.90;;;;;;5066897;28;20196;-81
2021/04/29 02:21:43;;;;;;;0.80;0.80;;;11.00;99.90;;;;;;5085140;28;20196;-81
2021/04/29 02:24:12;;;;;;;0.80;0.73;;;10.90;99.90;;;;;;5085529;28;20623;-81
2021/04/29 02:26:38;;;;;;;0.77;0.70;;;11.00;99.90;;;;;;5085807;28;20279;-81
2021/04/29 02:29:07;;;;;;;0.50;0.50;;;11.00;99.90;;;;;;5085323;28;20200;-81
2021/04/29 02:31:35;;;;;;;0.70;0.70;;;10.90;99.90;;;;;;5084971;28;20201;-81
2021/04/29 02:34:03;;;;;;;0.90;0.70;;;10.90;99.90;;;;;;5067192;28;20213;-81
2021/04/29 02:36:29;;;;;;;0.60;0.53;;;10.90;99.90;;;;;;5086479;28;20536;-80
2021/04/29 02:38:56;;;;;;;1.20;0.80;;;10.90;99.90;;;;;;5100433;28;20183;-81
2021/04/29 02:41:23;;;;;;;0.57;0.40;;;10.90;99.90;;;;;;5070554;28;20215;-81
2021/04/29 02:43:49;;;;;;;1.13;0.60;;;10.90;99.90;;;;;;5067210;28;20181;-81
2021/04/29 02:46:15;;;;;;;0.60;0.60;;;10.90;99.90;;;;;;5062465;28;20603;-80
2021/04/29 02:48:41;;;;;;;0.77;0.77;;;10.90;99.90;;;;;;5079935;28;20193;-81
2021/04/29 02:51:08;;;;;;;0.83;0.70;;;10.90;99.90;;;;;;5067273;28;20183;-81
2021/04/29 02:53:35;;;;;;;1.40;0.57;;;10.90;99.90;;;;;;5067186;28;20173;-81
2021/04/29 02:56:01;;;;;;;0.50;0.50;;;10.80;99.90;;;;;;5066675;28;20176;-81
2021/04/29 02:58:27;;;;;;;0.77;0.70;;;10.90;99.90;;;;;;5066200;28;20231;-81
2021/04/29 03:00:54;;;;;;;0.53;0.53;;;10.80;99.90;;;;;;5061506;28;20208;-80
2021/04/29 03:03:20;;;;;;;0.50;0.50;;;10.80;99.90;;;;;;5080348;28;20262;-81
2021/04/29 03:05:47;;;;;;;0.83;0.83;;;10.80;99.90;;;;;;5082424;28;20200;-81
2021/04/29 03:08:13;;;;;;;0.70;0.70;;;10.70;99.90;;;;;;5066046;28;20194;-81
2021/04/29 03:10:39;;;;;;;1.23;0.90;;;10.80;99.90;;;;;;5066074;28;20214;-81
2021/04/29 03:13:04;;;;;;;0.80;0.70;;;10.70;99.90;;;;;;5065127;28;20177;-81
2021/04/29 03:15:31;;;;;;;0.90;0.73;;;10.70;99.90;;;;;;5083434;28;20169;-81
2021/04/29 03:17:56;;;;;;;0.70;0.70;;;10.70;99.90;;;;;;5066143;28;20173;-81
2021/04/29 03:20:22;;;;;;;0.80;0.80;;;10.70;99.90;;;;;;5065900;28;20223;-81
2021/04/29 03:22:48;;;;;;;0.97;0.80;;;10.70;99.90;;;;;;5065416;28;20611;-81
2021/04/29 03:25:13;;;;;;;0.83;0.80;;;10.70;99.90;;;;;;5083740;28;20173;-81
2021/04/29 03:27:40;;;;;;;2.53;0.90;;;10.70;99.90;;;;;;5061672;28;20200;-81
2021/04/29 03:30:07;;;;;;;1.10;0.73;;;10.60;99.90;;;;;;5079196;28;20192;-80
2021/04/29 03:32:32;;;;;;;1.10;1.00;;;10.70;99.90;;;;;;5079302;28;20180;-80
2021/04/29 03:34:58;;;;;;;0.80;0.80;;;10.70;99.90;;;;;;5060041;28;20169;-80
2021/04/29 03:37:24;;;;;;;1.10;0.70;;;10.70;99.90;;;;;;5078731;28;20173;-81
2021/04/29 03:39:50;;;;;;;1.27;1.17;;;10.60;99.90;;;;;;5061369;28;20193;-80
2021/04/29 03:42:16;;;;;;;1.00;0.93;;;10.60;99.90;;;;;;5062771;28;20192;-81
2021/04/29 03:44:42;;;;;;;1.00;0.83;;;10.60;99.90;;;;;;5082048;28;20221;-82
2021/04/29 03:47:07;;;;;;;1.10;1.00;;;10.60;99.90;;;;;;5064808;28;20200;-82
2021/04/29 03:49:34;;;;;;;1.33;0.83;;;10.60;99.90;;;;;;5082893;28;20189;-81
2021/04/29 03:52:00;;;;;;;1.20;0.90;;;10.60;99.90;;;;;;5066131;28;20259;-82
2021/04/29 03:54:26;;;;;;;1.00;0.90;;;10.60;99.90;;;;;;5066999;28;20631;-81
2021/04/29 03:56:52;;;;;;;0.97;0.97;;;10.60;99.90;;;;;;5067688;28;20174;-82
2021/04/29 03:59:18;;;;;;;0.80;0.80;;;10.60;99.90;;;;;;5085149;28;20217;-81
2021/04/29 04:01:44;;;;;;;4.63;1.20;;;10.60;99.90;;;;;;5068086;28;20173;-82
2021/04/29 04:04:09;;;;;;;1.33;1.00;;;10.60;99.90;;;;;;5070592;28;20184;-80
2021/04/29 04:06:35;;;;;;;1.43;1.30;;;10.60;99.90;;;;;;5088857;28;20234;-81
2021/04/29 04:09:01;;;;;;;5.60;1.00;;;10.60;99.90;;;;;;5069043;28;20193;-81
2021/04/29 04:11:27;;;;;;;1.10;1.00;;;10.60;99.90;;;;;;5084146;28;20229;-81
2021/04/29 04:13:57;;;;;;;1.50;1.20;;;10.60;99.90;;;;;;5064777;28;20180;-81
2021/04/29 04:16:25;;;;;;;1.00;1.00;;;10.60;99.90;;;;;;5082993;28;20550;-82
2021/04/29 04:18:50;;;;;;;1.80;1.10;;;10.50;99.90;;;;;;5081537;28;20205;-80
2021/04/29 04:21:16;;;;;;;1.40;1.30;;;10.50;99.90;;;;;;5062201;28;20192;-80
2021/04/29 04:23:42;;;;;;;1.23;1.13;;;10.50;99.90;;;;;;5080065;28;20178;-80
2021/04/29 04:26:07;;;;;;;1.73;1.27;;;10.50;99.90;;;;;;5080390;28;20219;-80
2021/04/29 04:28:33;;;;;;;1.80;1.40;;;10.50;99.90;;;;;;5061612;28;20188;-80
2021/04/29 04:30:59;;;;;;;2.90;1.37;;;10.50;99.90;;;;;;5062702;28;20177;-80
2021/04/29 04:33:24;;;;;;;1.27;1.17;;;10.50;99.90;;;;;;5080167;28;20538;-80
2021/04/29 04:35:50;;;;;;;2.03;1.50;;;10.50;99.90;;;;;;5061304;28;20176;-79
2021/04/29 04:38:15;;;;;;;2.93;1.67;;;10.50;99.90;;;;;;5061931;28;20203;-80
2021/04/29 04:40:41;;;;;;;1.40;1.30;;;10.40;99.90;;;;;;5061902;28;20292;-80
2021/04/29 04:43:07;;;;;;;3.77;1.40;;;10.40;99.90;;;;;;5064966;28;20169;-80
2021/04/29 04:45:32;;;;;;;2.90;1.23;;;10.30;99.90;;;;;;5063528;28;20622;-79
2021/04/29 04:47:58;;;;;;;1.93;1.10;;;10.20;99.90;;;;;;5082000;28;20690;-80
2021/04/29 04:50:24;;;;;;;3.00;1.80;;;10.20;99.90;;;;;;5063610;28;20196;-80
2021/04/29 04:52:49;;;;;;;3.53;1.97;;;10.20;99.90;;;;;;5064738;28;20179;-80
2021/04/29 04:55:15;;;;;;;14.70;4.93;;;10.20;99.90;;;;;;5063027;28;20184;-82
2021/04/29 04:57:41;;;;;;;8.50;3.60;;;10.20;99.90;;;;;;5082777;28;20538;-80
2021/04/29 05:00:07;;;;;;;4.57;1.57;;;10.20;99.90;;;;;;5064319;28;20671;-79
2021/04/29 05:02:37;;;;;;;2.40;1.70;;;10.20;99.90;;;;;;5084106;28;20181;-80
2021/04/29 05:05:04;;;;;;;3.30;1.60;;;10.30;99.90;;;;;;5083306;28;20207;-79
2021/04/29 05:07:31;;;;;;;2.83;2.27;;;10.30;99.90;;;;;;5065113;28;20209;-79
2021/04/29 05:09:57;;;;;;;4.07;1.77;;;10.30;99.90;;;;;;5034192;28;20253;-80
2021/04/29 05:12:22;;;;;;;2.10;1.50;;;10.30;99.90;;;;;;5066537;28;20187;-80
2021/04/29 05:14:48;;;;;;;2.67;1.57;;;10.30;99.90;;;;;;5068208;28;20192;-80
2021/04/29 05:17:14;;;;;;;1.80;1.50;;;10.30;99.90;;;;;;5070140;28;20579;-80
2021/04/29 05:19:39;;;;;;;3.33;1.80;;;10.20;99.90;;;;;;5068884;28;20680;-80
2021/04/29 05:22:05;;;;;;;2.90;1.90;;;10.20;99.90;;;;;;5069144;28;20198;-80
2021/04/29 05:24:31;;;;;;;4.13;1.60;;;10.20;99.90;;;;;;5088196;28;20263;-80
2021/04/29 05:26:57;;;;;;;2.27;1.70;;;10.30;99.90;;;;;;5089225;28;20202;-79
2021/04/29 05:29:22;;;;;;;3.50;2.20;;;10.30;99.90;;;;;;5090467;28;20197;-80
2021/04/29 05:31:48;;;;;;;2.93;2.23;;;10.30;99.90;;;;;;5075713;28;20169;-80
2021/04/29 05:34:14;;;;;;;3.17;2.60;;;10.30;99.90;;;;;;5088697;28;20181;-80
2021/04/29 05:36:39;;;;;;;2.60;1.97;;;10.30;99.90;;;;;;5084322;28;20184;-80
2021/04/29 05:39:05;;;;;;;2.63;1.90;;;10.30;99.90;;;;;;5084295;28;20201;-79
2021/04/29 05:41:31;;;;;;;4.17;2.10;;;10.20;99.90;;;;;;5084988;28;20200;-80
2021/04/29 05:43:57;;;;;;;3.17;2.07;;;10.30;99.90;;;;;;5067422;28;20184;-80
2021/04/29 05:46:22;;;;;;;4.00;2.10;;;10.30;99.90;;;;;;5084773;28;20208;-80
2021/04/29 05:48:48;;;;;;;2.60;2.00;;;10.20;99.90;;;;;;5086089;28;20248;-80
2021/04/29 05:51:13;;;;;;;3.60;2.27;;;10.20;99.90;;;;;;5086445;28;20180;-80
2021/04/29 05:53:39;;;;;;;3.17;2.10;;;10.10;99.90;;;;;;5067771;28;20184;-80
2021/04/29 05:56:05;;;;;;;6.37;1.90;;;10.10;99.90;;;;;;5083830;28;20188;-80
2021/04/29 05:58:30;;;;;;;3.63;2.10;;;10.10;99.90;;;;;;5084518;28;20183;-80
2021/04/29 06:00:56;;;;;;;3.33;2.20;;;10.10;99.90;;;;;;5084947;28;20183;-79
2021/04/29 06:03:22;;;;;;;3.13;2.03;;;10.00;99.90;;;;;;5085945;28;20176;-81
2021/04/29 06:05:49;;;;;;;4.40;1.80;;;10.10;99.90;;;;;;5069897;28;20196;-81
2021/04/29 06:08:15;;;;;;;4.87;2.90;;;10.10;99.90;;;;;;5069037;28;20179;-80
2021/04/29 06:10:40;;;;;;;2.77;1.90;;;10.10;99.90;;;;;;5084405;28;20569;-80
2021/04/29 06:13:06;;;;;;;2.83;2.03;;;10.10;99.90;;;;;;5067666;28;20176;-81
2021/04/29 06:15:32;;;;;;;2.57;2.20;;;10.10;99.90;;;;;;5088639;28;20631;-81
2021/04/29 06:17:58;;;;;;;3.33;2.13;;;10.10;99.90;;;;;;5085712;28;20535;-81
2021/04/29 06:20:23;;;;;;;4.53;2.37;;;10.10;99.90;;;;;;5084867;28;20295;-80
2021/04/29 06:22:49;;;;;;;4.07;2.67;;;10.10;99.90;;;;;;5067646;28;20201;-81
2021/04/29 06:25:15;;;;;;;4.87;2.40;;;10.10;99.90;;;;;;5066297;28;20212;-81
2021/04/29 06:27:41;;;;;;;3.27;2.47;;;10.10;99.90;;;;;;5084661;28;20196;-81
2021/04/29 06:30:08;;;;;;;4.57;2.40;;;10.10;99.90;;;;;;5085356;28;20185;-81
2021/04/29 06:32:34;;;;;;;3.00;2.70;;;10.10;99.90;;;;;;5066504;28;20173;-81
2021/04/29 06:35:00;;;;;;;4.10;2.37;;;10.20;99.90;;;;;;5066943;28;20211;-81
2021/04/29 06:37:26;;;;;;;5.73;2.83;;;10.10;99.90;;;;;;5066274;28;20181;-81
2021/04/29 06:39:52;;;;;;;5.03;3.10;;;10.10;99.90;;;;;;5083677;28;20260;-80
2021/04/29 06:42:18;;;;;;;5.80;3.00;;;10.00;99.90;;;;;;5082692;28;20181;-81
2021/04/29 06:44:44;;;;;;;4.10;2.70;;;10.00;99.90;;;;;;5084518;28;20185;-81
2021/04/29 06:47:10;;;;;;;5.67;3.13;;;10.00;99.90;;;;;;5084382;28;20197;-81
2021/04/29 06:49:36;;;;;;;4.83;3.17;;;10.00;99.90;;;;;;5066637;28;20209;-81
2021/04/29 06:52:02;;;;;;;6.47;3.00;;;10.00;99.90;;;;;;5065692;28;20185;-81
2021/04/29 06:54:28;;;;;;;6.13;3.40;;;10.00;99.90;;;;;;5083295;28;20165;-81
2021/04/29 06:56:54;;;;;;;10.47;3.07;;;10.10;99.90;;;;;;5066867;28;20605;-82
2021/04/29 06:59:20;;;;;;;6.23;3.40;;;10.20;99.90;;;;;;5065973;28;20204;-82
2021/04/29 07:01:46;;;;;;;5.60;3.10;;;10.20;99.90;;;;;;5083319;28;20176;-81
2021/04/29 07:04:12;;;;;;;7.57;4.33;;;10.20;99.90;;;;;;5083335;28;20566;-82
2021/04/29 07:06:38;;;;;;;5.50;3.50;;;10.20;99.90;;;;;;5083884;28;20256;-82
2021/04/29 07:09:04;;;;;;;6.93;3.70;;;10.10;99.90;;;;;;5065239;28;20204;-82
2021/04/29 07:11:31;;;;;;;4.50;3.50;;;10.00;99.90;;;;;;5081722;28;20641;-81
2021/04/29 07:13:57;;;;;;;9.20;4.17;;;10.00;99.90;;;;;;5081541;28;20248;-82
2021/04/29 07:16:23;;;;;;;6.43;3.80;;;10.00;99.90;;;;;;5081472;28;20653;-81
2021/04/29 07:18:50;;;;;;;5.43;3.90;;;10.10;99.90;;;;;;5063058;28;20288;-81
2021/04/29 07:21:15;;;;;;;8.17;3.90;;;10.10;99.90;;;;;;5088189;28;20203;-81
2021/04/29 07:23:41;;;;;;;5.67;3.87;;;10.10;99.90;;;;;;5080999;28;20248;-81
2021/04/29 07:26:07;;;;;;;4.80;3.60;;;10.10;99.90;;;;;;5097623;28;20183;-82
2021/04/29 07:28:34;;;;;;;5.40;3.70;;;10.20;99.90;;;;;;5085770;28;20211;-82
2021/04/29 07:31:03;;;;;;;7.20;3.77;;;10.10;99.90;;;;;;5081967;28;20198;-82
2021/04/29 07:33:28;;;;;;;6.87;3.83;;;10.10;99.90;;;;;;5063841;28;20179;-82
2021/04/29 07:35:54;;;;;;;5.37;3.73;;;10.10;99.90;;;;;;5064071;28;20181;-82
2021/04/29 07:38:20;;;;;;;4.83;3.90;;;10.20;99.90;;;;;;5063652;28;20543;-82
2021/04/29 07:40:45;;;;;;;4.93;3.67;;;10.20;99.90;;;;;;5081831;28;20201;-82
2021/04/29 07:43:11;;;;;;;7.67;4.50;;;10.30;99.90;;;;;;5083159;28;20228;-82
2021/04/29 07:45:37;;;;;;;5.40;3.77;;;10.40;99.90;;;;;;5081521;28;20662;-82
2021/04/29 07:48:03;;;;;;;8.63;4.87;;;10.40;99.90;;;;;;5082314;28;20204;-82
2021/04/29 07:50:31;;;;;;;4.97;4.17;;;10.50;99.90;;;;;;5082193;28;20192;-82
2021/04/29 07:52:57;;;;;;;7.43;4.63;;;10.40;99.90;;;;;;5081954;28;20192;-82
2021/04/29 07:55:23;;;;;;;6.07;4.27;;;10.40;99.90;;;;;;5065915;28;20177;-82
2021/04/29 07:57:48;;;;;;;8.53;4.63;;;10.40;99.90;;;;;;5066646;28;20187;-82
2021/04/29 08:00:15;;;;;;;6.93;4.67;;;10.40;99.90;;;;;;5084486;28;20620;-82
2021/04/29 08:02:44;;;;;;;5.13;4.40;;;10.50;99.90;;;;;;5083647;28;20184;-82
2021/04/29 08:05:10;;;;;;;5.90;4.60;;;10.50;99.90;;;;;;5085861;28;20177;-82
2021/04/29 08:07:37;;;;;;;6.63;4.33;;;10.50;99.90;;;;;;5084816;28;20544;-81
2021/04/29 08:10:04;;;;;;;7.80;5.07;;;10.50;99.90;;;;;;5066854;28;20208;-82
2021/04/29 08:12:30;;;;;;;7.53;4.50;;;10.50;99.90;;;;;;5067328;28;20549;-82
2021/04/29 08:14:59;;;;;;;8.30;4.73;;;10.50;99.90;;;;;;5085102;28;20176;-82
2021/04/29 08:17:25;;;;;;;6.77;4.90;;;10.60;99.90;;;;;;5066579;28;20185;-82
2021/04/29 08:19:52;;;;;;;8.03;5.37;;;10.60;99.90;;;;;;5065294;28;20570;-82
2021/04/29 08:22:18;;;;;;;7.37;4.60;;;10.60;99.90;;;;;;5065694;28;20199;-82
2021/04/29 08:24:44;;;;;;;7.57;5.03;;;10.60;99.90;;;;;;5064752;28;20207;-81
2021/04/29 08:27:09;;;;;;;7.50;4.57;;;10.60;99.90;;;;;;5064781;28;20728;-81
2021/04/29 08:29:35;;;;;;;7.00;4.40;;;10.60;99.90;;;;;;5080994;28;20189;-81
2021/04/29 08:32:01;;;;;;;7.73;4.90;;;10.60;99.90;;;;;;5077265;28;20180;-82
2021/04/29 08:34:26;;;;;;;9.50;4.57;;;10.60;99.90;;;;;;5066248;28;20185;-82
2021/04/29 08:36:52;;;;;;;5.90;4.53;;;10.60;99.90;;;;;;5085187;28;20185;-82
2021/04/29 08:39:18;;;;;;;9.50;5.20;;;10.70;99.90;;;;;;5066412;28;20201;-82
2021/04/29 08:41:44;;;;;;;6.00;4.23;;;10.70;99.90;;;;;;5085163;28;20179;-82
2021/04/29 08:44:10;;;;;;;5.40;4.43;;;10.90;99.90;;;;;;5066066;28;20203;-82
2021/04/29 08:46:35;;;;;;;6.60;4.67;;;10.90;99.90;;;;;;5067031;28;20232;-82
2021/04/29 08:49:01;;;;;;;11.93;4.47;;;10.90;99.90;;;;;;5089023;28;20199;-82
2021/04/29 08:51:27;;;;;;;5.20;3.90;;;11.00;99.90;;;;;;5070436;28;20238;-82
2021/04/29 08:53:55;;;;;;;7.20;4.30;;;10.90;99.90;;;;;;5070844;28;20226;-82
2021/04/29 08:56:23;;;;;;;6.23;4.63;;;10.90;99.90;;;;;;5070663;28;20181;-82
2021/04/29 08:58:57;;;;;;;7.57;4.10;;;10.90;99.90;;;;;;5068205;28;20692;-81
2021/04/29 09:01:24;;;;;;;8.83;4.43;;;10.90;99.90;;;;;;5068828;28;20221;-81
2021/04/29 09:03:50;;;;;;;7.40;4.00;;;11.00;99.90;;;;;;5086672;28;20699;-81
2021/04/29 09:06:17;;;;;;;8.17;4.67;;;11.00;99.90;;;;;;5068823;28;20212;-81
2021/04/29 09:08:45;;;;;;;4.23;3.83;;;11.00;99.90;;;;;;5086407;28;20169;-81
2021/04/29 09:11:16;;;;;;;6.23;4.37;;;11.00;99.90;;;;;;5069514;28;20177;-82
2021/04/29 09:14:00;;;;;;;5.50;4.10;;;11.10;99.90;;;;;;5087441;28;20227;-81
2021/04/29 09:16:43;;;;;;;5.33;4.20;;;11.20;99.90;;;;;;5069419;28;20176;-81
2021/04/29 09:19:25;;;;;;;8.70;4.30;;;11.40;99.90;;;;;;5069210;28;20589;-81
2021/04/29 09:21:51;;;;;;;6.57;4.07;;;11.50;99.90;;;;;;5087264;28;20218;-82
2021/04/29 09:24:17;;;;;;;8.30;4.03;;;11.40;99.90;;;;;;5069616;28;20204;-82
2021/04/29 09:26:44;;;;;;;4.90;4.00;;;11.40;99.90;;;;;;5070096;28;20262;-82
2021/04/29 09:29:15;;;;;;;8.67;3.10;;;11.30;99.90;;;;;;5090230;28;20195;-82
2021/04/29 09:31:43;;;;;;;3.83;3.40;;;11.40;99.90;;;;;;5071007;28;20169;-81
2021/04/29 09:34:09;;;;;;;6.73;3.53;;;11.40;99.90;;;;;;5085774;28;20170;-82
2021/04/29 09:36:44;;;;;;;4.53;3.20;;;11.50;99.90;;;;;;5087027;28;20256;-82
2021/04/29 09:39:15;;;;;;;4.20;3.10;;;11.70;99.90;;;;;;5068239;28;20200;-82
2021/04/29 09:41:46;;;;;;;5.73;2.57;;;11.80;99.90;;;;;;5087038;28;20635;-82
2021/04/29 09:44:13;;;;;;;5.47;3.07;;;11.90;99.90;;;;;;5067650;28;20188;-82
2021/04/29 09:46:46;;;;;;;10.37;3.00;;;11.90;99.90;;;;;;5085826;28;20193;-82
2021/04/29 09:49:32;;;;;;;5.73;3.00;;;11.90;99.90;;;;;;5084581;28;20219;-82
2021/04/29 09:52:01;;;;;;;6.50;2.80;;;12.00;99.90;;;;;;5066623;28;20191;-82
2021/04/29 09:54:32;;;;;;;4.67;2.80;;;12.10;99.90;;;;;;5066475;28;20650;-82
2021/04/29 09:57:04;;;;;;;4.90;2.53;;;12.10;99.90;;;;;;5065274;28;20177;-82
2021/04/29 09:59:31;;;;;;;6.30;2.80;;;12.10;99.90;;;;;;5084298;28;20201;-82
2021/04/29 10:01:58;;;;;;;6.47;3.27;;;12.00;99.90;;;;;;5066158;28;20184;-81
2021/04/29 10:04:25;;;;;;;3.97;2.90;;;12.10;99.90;;;;;;5084218;28;20169;-81
2021/04/29 10:06:54;;;;;;;4.93;3.07;;;12.10;99.90;;;;;;5083462;28;20203;-82
2021/04/29 10:09:24;;;;;;;4.13;2.93;;;12.20;99.90;;;;;;5066873;28;20219;-81
2021/04/29 10:11:55;;;;;;;4.47;3.03;;;12.30;99.90;;;;;;5086239;28;20183;-81
2021/04/29 10:14:24;;;;;;;4.37;2.60;;;12.40;99.90;;;;;;5084528;28;20575;-82
2021/04/29 10:16:50;;;;;;;4.07;3.30;;;12.40;99.90;;;;;;5067510;28;20268;-81
2021/04/29 10:19:16;;;;;;;4.53;2.93;;;12.60;99.90;;;;;;5066270;28;20686;-82
2021/04/29 10:21:42;;;;;;;5.23;3.53;;;12.70;99.90;;;;;;5086368;28;20272;-82
2021/04/29 10:24:10;;;;;;;7.67;3.53;;;12.60;99.90;;;;;;5085896;28;20168;-81
2021/04/29 10:26:38;;;;;;;6.43;3.70;;;12.60;99.90;;;;;;5084885;28;20224;-81
2021/04/29 10:29:05;;;;;;;4.67;3.10;;;12.70;99.90;;;;;;5083782;28;20263;-81
2021/04/29 10:31:33;;;;;;;6.60;3.37;;;12.80;99.90;;;;;;5087008;28;20244;-81
2021/04/29 10:34:12;;;;;;;6.40;3.60;;;13.00;99.90;;;;;;5084143;28;20177;-81
2021/04/29 10:36:46;;;;;;;3.77;2.90;;;12.90;99.90;;;;;;5063597;28;20172;-81
2021/04/29 10:39:18;;;;;;;6.30;3.10;;;12.80;99.90;;;;;;5089298;28;20185;-81
2021/04/29 10:41:49;;;;;;;5.87;2.83;;;12.90;99.90;;;;;;5096666;28;20177;-82
2021/04/29 10:44:19;;;;;;;4.43;2.80;;;13.10;99.90;;;;;;5097370;28;20169;-81
2021/04/29 10:46:49;;;;;;;6.40;3.30;;;13.20;99.90;;;;;;5089183;28;20228;-82
2021/04/29 10:49:16;;;;;;;6.37;2.50;;;13.60;99.90;;;;;;5085892;28;20185;-81
2021/04/29 10:51:43;;;;;;;5.20;3.00;;;13.90;99.90;;;;;;5067637;28;20529;-82
2021/04/29 10:54:08;;;;;;;5.70;2.97;;;14.00;99.90;;;;;;5068097;28;20173;-82
2021/04/29 10:56:34;;;;;;;4.37;2.87;;;14.20;99.90;;;;;;5067865;28;20228;-82
2021/04/29 10:59:08;;;;;;;5.43;3.13;;;14.50;99.90;;;;;;5084271;28;20684;-82
2021/04/29 11:01:43;;;;;;;4.33;2.93;;;14.50;99.30;;;;;;5084526;28;20581;-82
2021/04/29 11:04:20;;;;;;;4.27;2.60;;;14.10;99.10;;;;;;5066843;28;20164;-82
2021/04/29 11:06:48;;;;;;;5.73;2.60;;;13.90;99.90;;;;;;5084275;28;20196;-82
2021/04/29 11:09:25;;;;;;;6.23;2.50;;;13.50;99.70;;;;;;5084357;28;20196;-82
2021/04/29 11:12:05;;;;;;;2.50;2.27;;;13.30;99.90;;;;;;5084728;28;20210;-82
2021/04/29 11:14:43;;;;;;;3.63;2.13;;;13.20;99.90;;;;;;5066966;28;20524;-82
2021/04/29 11:17:23;;;;;;;3.97;2.20;;;13.00;99.90;;;;;;5085423;28;20172;-81
2021/04/29 11:19:59;;;;;;;6.70;2.53;;;13.00;99.90;;;;;;5085405;28;20227;-82
2021/04/29 11:22:30;;;;;;;6.00;3.13;;;13.00;99.90;;;;;;5067274;28;20184;-82
2021/04/29 11:24:57;;;;;;;3.80;2.60;;;13.10;99.90;;;;;;5063793;28;20259;-81
2021/04/29 11:27:25;;;;;;;7.47;3.00;;;13.10;99.90;;;;;;5080779;28;20200;-81
2021/04/29 11:30:01;;;;;;;4.37;2.70;;;13.00;99.90;;;;;;5082336;28;20276;-81
2021/04/29 11:32:27;;;;;;;3.93;2.20;;;12.80;99.90;;;;;;5083122;28;20614;-81
2021/04/29 11:34:54;;;;;;;4.47;2.80;;;12.80;99.90;;;;;;5082415;28;20196;-81
2021/04/29 11:37:20;;;;;;;3.87;2.63;;;12.80;99.90;;;;;;5064179;28;20177;-80
2021/04/29 11:40:01;;;;;;;3.80;2.30;;;12.80;99.90;;;;;;5081174;28;20212;-81
2021/04/29 11:42:32;;;;;;;6.10;2.47;;;12.70;99.90;;;;;;5082078;28;20169;-81
2021/04/29 11:45:14;;;;;;;4.33;2.30;;;12.80;99.90;;;;;;5082784;28;20192;-81
2021/04/29 11:48:01;;;;;;;6.83;2.27;;;12.90;99.90;;;;;;5082333;28;20287;-81
2021/04/29 11:50:34;;;;;;;3.80;2.23;;;13.00;99.90;;;;;;5046912;28;20572;-81
2021/04/29 11:53:12;;;;;;;3.93;1.97;;;13.00;99.90;;;;;;5065323;28;20200;-81
2021/04/29 11:55:54;;;;;;;4.10;1.73;;;12.90;99.90;;;;;;5082869;28;20169;-81
2021/04/29 11:58:20;;;;;;;5.10;1.93;;;12.80;99.90;;;;;;5064343;28;20180;-81
2021/04/29 12:00:48;;;;;;;5.90;2.80;;;12.70;99.50;;;;;;5083659;28;20219;-81
2021/04/29 12:03:15;;;;;;;5.27;1.87;;;12.70;99.90;;;;;;5083340;28;20227;-81
2021/04/29 12:05:43;;;;;;;4.13;2.20;;;12.80;99.90;;;;;;5082210;28;20169;-82
2021/04/29 12:08:15;;;;;;;4.90;2.50;;;12.90;99.90;;;;;;5083779;28;20336;-81
2021/04/29 12:10:49;;;;;;;4.93;2.13;;;12.90;99.90;;;;;;5066048;28;20192;-82
2021/04/29 12:13:26;;;;;;;5.37;2.40;;;12.80;99.90;;;;;;5065684;28;20176;-81
2021/04/29 12:15:54;;;;;;;7.53;2.70;;;12.80;99.90;;;;;;5065379;28;20168;-81
2021/04/29 12:18:20;;;;;;;5.83;2.70;;;12.80;99.90;;;;;;5083641;28;20223;-80
2021/04/29 12:20:46;;;;;;;6.50;2.80;;;13.00;99.90;;;;;;5063435;28;20575;-81
2021/04/29 12:23:14;;;;;;;4.63;2.50;;;13.10;99.90;;;;;;5081871;28;20207;-81
2021/04/29 12:25:40;;;;;;;8.93;2.97;;;13.20;99.00;;;;;;5064365;28;20193;-81
2021/04/29 12:28:16;;;;;;;5.37;3.13;;;13.20;99.50;;;;;;5047907;28;20212;-81
2021/04/29 12:30:42;;;;;;;4.03;2.77;;;13.20;99.30;;;;;;5044578;28;20193;-81
2021/04/29 12:33:22;;;;;;;5.07;2.70;;;13.20;97.10;;;;;;5045098;28;20169;-81
2021/04/29 12:35:48;;;;;;;4.90;2.87;;;13.10;97.00;;;;;;5058089;28;20169;-81
2021/04/29 12:38:15;;;;;;;5.50;3.00;;;13.10;97.10;;;;;;5061359;28;20181;-81
2021/04/29 12:40:43;;;;;;;4.00;2.87;;;13.20;97.00;;;;;;5068337;28;20211;-81
2021/04/29 12:43:22;;;;;;;5.57;3.23;;;13.00;96.00;;;;;;5050945;28;20191;-81
2021/04/29 12:45:54;;;;;;;5.80;3.33;;;12.90;96.00;;;;;;5062430;28;20165;-81
2021/04/29 12:48:34;;;;;;;4.97;3.00;;;12.90;96.60;;;;;;5061834;28;20236;-80